createdAt,value
2023-03-05T00:01:06.755Z,15
2023-03-05T00:02:22.942Z,15.1
2023-03-05T00:03:38.153Z,15
2023-03-05T00:04:54.336Z,15
2023-03-05T00:06:10.197Z,15.1
2023-03-05T00:07:26.385Z,15.1
2023-03-05T00:08:42.570Z,15
2023-03-05T00:09:58.769Z,15.1
2023-03-05T00:11:15.272Z,15.1
2023-03-05T00:12:31.471Z,15.1
2023-03-05T00:13:47.643Z,15.1
2023-03-05T00:15:03.837Z,15
2023-03-05T00:16:20.015Z,15
2023-03-05T00:17:35.891Z,15
2023-03-05T00:18:52.087Z,15
2023-03-05T00:20:07.606Z,15
2023-03-05T00:21:23.793Z,15
2023-03-05T00:22:39.663Z,15
2023-03-05T00:23:55.832Z,15
2023-03-05T00:25:12.350Z,15
2023-03-05T00:26:28.219Z,15
2023-03-05T00:27:44.723Z,15.1
2023-03-05T00:29:00.918Z,15.1
2023-03-05T00:30:17.109Z,15.2
2023-03-05T00:31:33.281Z,15.2
2023-03-05T00:32:49.467Z,15.1
2023-03-05T00:34:05.667Z,15.1
2023-03-05T00:35:21.852Z,15.1
2023-03-05T00:36:37.053Z,15.1
2023-03-05T00:37:53.235Z,15.1
2023-03-05T00:39:09.425Z,15.1
2023-03-05T00:40:25.613Z,15.1
2023-03-05T00:41:41.812Z,15.1
2023-03-05T00:42:57.656Z,15.1
2023-03-05T00:44:14.174Z,15.1
2023-03-05T00:45:30.362Z,15.1
2023-03-05T00:46:46.226Z,15.1
2023-03-05T00:48:02.413Z,15.1
2023-03-05T00:49:18.939Z,15.1
2023-03-05T00:50:35.117Z,15.1
2023-03-05T00:51:51.311Z,15.1
2023-03-05T00:53:06.517Z,15.1
2023-03-05T00:54:22.691Z,15.1
2023-03-05T00:55:38.876Z,15.1
2023-03-05T00:56:54.741Z,15.1
2023-03-05T00:58:11.264Z,15.1
2023-03-05T00:59:27.441Z,15.1
2023-03-05T01:00:43.307Z,15.1
2023-03-05T01:01:59.826Z,15.1
2023-03-05T01:03:16.000Z,15.1
2023-03-05T01:04:31.870Z,15.1
2023-03-05T01:05:48.380Z,15.1
2023-03-05T01:07:04.560Z,15.1
2023-03-05T01:08:20.764Z,15.1
2023-03-05T01:09:36.952Z,15.1
2023-03-05T01:10:52.143Z,15.1
2023-03-05T01:12:08.331Z,15.1
2023-03-05T01:13:24.184Z,15
2023-03-05T01:14:40.713Z,15.1
2023-03-05T01:15:56.903Z,15
2023-03-05T01:17:12.741Z,15
2023-03-05T01:18:29.263Z,15
2023-03-05T01:19:45.459Z,15
2023-03-05T01:21:01.642Z,15
2023-03-05T01:22:17.833Z,15
2023-03-05T01:23:34.028Z,15
2023-03-05T01:24:49.871Z,15
2023-03-05T01:26:06.394Z,15
2023-03-05T01:27:21.592Z,15
2023-03-05T01:28:37.782Z,15
2023-03-05T01:29:53.975Z,15
2023-03-05T01:31:10.165Z,15
2023-03-05T01:32:26.349Z,15
2023-03-05T01:33:42.529Z,15
2023-03-05T01:34:58.721Z,15
2023-03-05T01:36:14.902Z,15
2023-03-05T01:37:30.765Z,15
2023-03-05T01:38:47.285Z,15
2023-03-05T01:40:03.475Z,15
2023-03-05T01:41:19.665Z,15
2023-03-05T01:42:35.513Z,15
2023-03-05T01:43:51.053Z,15
2023-03-05T01:45:07.230Z,15
2023-03-05T01:46:23.425Z,15
2023-03-05T01:47:39.612Z,15
2023-03-05T01:48:55.809Z,14.9
2023-03-05T01:50:11.980Z,15
2023-03-05T01:51:27.835Z,15
2023-03-05T01:52:44.371Z,15
2023-03-05T01:54:00.541Z,15
2023-03-05T01:55:16.732Z,15
2023-03-05T01:56:32.925Z,15
2023-03-05T01:57:48.768Z,15.1
2023-03-05T01:59:05.303Z,15.1
2023-03-05T02:00:20.505Z,15.1
2023-03-05T02:01:36.686Z,15
2023-03-05T02:02:52.528Z,15
2023-03-05T02:04:08.711Z,15.1
2023-03-05T02:05:24.916Z,15.1
2023-03-05T02:06:41.439Z,15
2023-03-05T02:07:57.634Z,15.1
2023-03-05T02:09:13.823Z,15
2023-03-05T02:10:30.012Z,15.1
2023-03-05T02:11:46.195Z,15.1
2023-03-05T02:13:02.377Z,15
2023-03-05T02:14:18.556Z,15
2023-03-05T02:15:34.756Z,15
2023-03-05T02:16:49.946Z,15
2023-03-05T02:18:05.794Z,15
2023-03-05T02:19:22.329Z,15
2023-03-05T02:20:38.169Z,15
2023-03-05T02:21:54.710Z,15.1
2023-03-05T02:23:10.898Z,15.2
2023-03-05T02:24:27.089Z,15.2
2023-03-05T02:25:42.927Z,15.2
2023-03-05T02:26:59.110Z,15.2
2023-03-05T02:28:15.286Z,15.2
2023-03-05T02:29:31.487Z,15.2
2023-03-05T02:30:47.660Z,15.1
2023-03-05T02:32:04.198Z,15.1
2023-03-05T02:33:19.055Z,15.1
2023-03-05T02:34:35.605Z,15.1
2023-03-05T02:35:51.442Z,15.1
2023-03-05T02:37:07.976Z,15.1
2023-03-05T02:38:24.159Z,15.1
2023-03-05T02:39:40.346Z,15.1
2023-03-05T02:40:56.177Z,15.1
2023-03-05T02:42:12.723Z,15.1
2023-03-05T02:43:28.902Z,15.1
2023-03-05T02:44:44.747Z,15.1
2023-03-05T02:46:01.275Z,15.1
2023-03-05T02:47:17.464Z,15.1
2023-03-05T02:48:33.299Z,15.1
2023-03-05T02:49:48.859Z,15.1
2023-03-05T02:51:05.056Z,15.1
2023-03-05T02:52:21.245Z,15
2023-03-05T02:53:37.420Z,15
2023-03-05T02:54:53.613Z,15
2023-03-05T02:56:09.806Z,15.1
2023-03-05T02:57:25.976Z,15.1
2023-03-05T02:58:42.180Z,15.1
2023-03-05T02:59:58.366Z,15.1
2023-03-05T03:01:14.201Z,15.1
2023-03-05T03:02:30.739Z,15.1
2023-03-05T03:03:46.916Z,15.1
2023-03-05T03:05:03.118Z,15.1
2023-03-05T03:06:18.305Z,15
2023-03-05T03:07:34.144Z,15
2023-03-05T03:08:50.338Z,15
2023-03-05T03:10:06.867Z,15
2023-03-05T03:11:23.078Z,15
2023-03-05T03:12:39.256Z,15
2023-03-05T03:13:55.076Z,15
2023-03-05T03:15:11.625Z,15
2023-03-05T03:16:27.451Z,15
2023-03-05T03:17:44.003Z,15
2023-03-05T03:18:59.825Z,15
2023-03-05T03:20:16.383Z,15
2023-03-05T03:21:32.561Z,15
2023-03-05T03:22:48.874Z,15
2023-03-05T03:24:05.064Z,15
2023-03-05T03:25:21.238Z,15
2023-03-05T03:26:37.436Z,15
2023-03-05T03:27:53.254Z,15
2023-03-05T03:29:08.824Z,15
2023-03-05T03:30:24.643Z,15
2023-03-05T03:31:41.198Z,15
2023-03-05T03:32:57.395Z,14.9
2023-03-05T03:34:13.587Z,15
2023-03-05T03:35:29.765Z,15
2023-03-05T03:36:45.953Z,15
2023-03-05T03:38:02.138Z,15
2023-03-05T03:39:18.329Z,15
2023-03-05T03:40:34.525Z,14.9
2023-03-05T03:41:50.702Z,15
2023-03-05T03:43:06.895Z,14.9
2023-03-05T03:44:22.722Z,14.9
2023-03-05T03:45:37.909Z,14.9
2023-03-05T03:46:54.105Z,14.9
2023-03-05T03:48:10.649Z,14.9
2023-03-05T03:49:26.835Z,14.9
2023-03-05T03:50:43.040Z,14.9
2023-03-05T03:51:58.842Z,14.9
2023-03-05T03:53:15.037Z,14.9
2023-03-05T03:54:31.605Z,14.9
2023-03-05T03:55:47.781Z,14.9
2023-03-05T03:57:03.969Z,14.9
2023-03-05T03:58:19.784Z,14.9
2023-03-05T03:59:36.347Z,14.9
2023-03-05T04:00:52.535Z,14.9
2023-03-05T04:02:07.753Z,14.9
2023-03-05T04:03:23.933Z,14.9
2023-03-05T04:04:40.119Z,14.9
2023-03-05T04:05:56.318Z,14.9
2023-03-05T04:07:12.493Z,14.9
2023-03-05T04:08:28.681Z,14.9
2023-03-05T04:09:44.878Z,14.9
2023-03-05T04:11:00.704Z,14.9
2023-03-05T04:12:17.260Z,14.9
2023-03-05T04:13:33.451Z,14.9
2023-03-05T04:14:49.633Z,14.8
2023-03-05T04:16:05.817Z,14.8
2023-03-05T04:17:21.635Z,14.9
2023-03-05T04:18:37.209Z,14.8
2023-03-05T04:19:53.401Z,14.8
2023-03-05T04:21:09.589Z,14.8
2023-03-05T04:22:25.794Z,14.8
2023-03-05T04:23:41.586Z,14.8
2023-03-05T04:24:58.155Z,14.8
2023-03-05T04:26:14.350Z,14.8
2023-03-05T04:27:30.167Z,14.8
2023-03-05T04:28:46.719Z,14.8
2023-03-05T04:30:02.546Z,14.8
2023-03-05T04:31:18.736Z,14.8
2023-03-05T04:32:35.301Z,14.8
2023-03-05T04:33:51.490Z,14.8
2023-03-05T04:35:06.319Z,14.8
2023-03-05T04:36:22.879Z,14.8
2023-03-05T04:37:38.682Z,14.8
2023-03-05T04:38:55.262Z,14.8
2023-03-05T04:40:11.451Z,14.8
2023-03-05T04:41:27.642Z,14.8
2023-03-05T04:42:43.833Z,14.8
2023-03-05T04:44:00.012Z,14.8
2023-03-05T04:45:16.204Z,14.8
2023-03-05T04:47:48.586Z,14.8
2023-03-05T04:49:04.758Z,14.8
2023-03-05T04:50:20.568Z,14.8
2023-03-05T04:51:36.163Z,14.8
2023-03-05T04:52:51.960Z,14.8
2023-03-05T04:54:08.549Z,14.8
2023-03-05T04:55:24.733Z,14.7
2023-03-05T04:56:40.920Z,14.7
2023-03-05T04:57:57.114Z,14.7
2023-03-05T04:59:13.299Z,14.7
2023-03-05T05:00:29.475Z,14.7
2023-03-05T05:01:45.682Z,14.7
2023-03-05T05:03:01.481Z,14.7
2023-03-05T05:04:18.056Z,14.7
2023-03-05T05:05:34.231Z,14.7
2023-03-05T05:06:50.438Z,14.7
2023-03-05T05:08:05.633Z,14.7
2023-03-05T05:09:21.831Z,14.7
2023-03-05T05:10:38.017Z,14.7
2023-03-05T05:11:54.204Z,14.7
2023-03-05T05:13:10.387Z,14.7
2023-03-05T05:14:26.573Z,14.7
2023-03-05T05:15:42.391Z,14.7
2023-03-05T05:16:58.961Z,14.7
2023-03-05T05:18:14.760Z,14.7
2023-03-05T05:19:31.337Z,14.7
2023-03-05T05:20:47.528Z,14.7
2023-03-05T05:22:03.713Z,14.6
2023-03-05T05:23:19.521Z,14.7
2023-03-05T05:24:35.104Z,14.7
2023-03-05T05:25:50.919Z,14.7
2023-03-05T05:27:07.487Z,14.7
2023-03-05T05:28:23.676Z,14.7
2023-03-05T05:29:39.480Z,14.7
2023-03-05T05:30:56.046Z,14.7
2023-03-05T05:32:12.238Z,14.7
2023-03-05T05:33:28.429Z,14.6
2023-03-05T05:34:44.611Z,14.6
2023-03-05T05:36:00.426Z,14.7
2023-03-05T05:37:17.007Z,14.7
2023-03-05T05:38:32.796Z,14.6
2023-03-05T05:39:48.993Z,14.6
2023-03-05T05:41:04.580Z,14.6
2023-03-05T05:42:20.779Z,14.6
2023-03-05T05:43:36.954Z,14.7
2023-03-05T05:44:53.145Z,14.7
2023-03-05T05:46:08.945Z,14.7
2023-03-05T05:47:25.536Z,14.7
2023-03-05T05:48:41.725Z,14.7
2023-03-05T05:49:57.898Z,14.7
2023-03-05T05:51:14.104Z,14.7
2023-03-05T05:52:30.288Z,14.7
2023-03-05T05:53:46.075Z,14.7
2023-03-05T05:55:02.271Z,14.7
2023-03-05T05:56:18.457Z,14.7
2023-03-05T05:57:34.057Z,14.7
2023-03-05T05:58:50.248Z,14.7
2023-03-05T06:00:06.437Z,14.7
2023-03-05T06:01:22.627Z,14.7
2023-03-05T06:02:38.410Z,14.7
2023-03-05T06:03:55.005Z,14.7
2023-03-05T06:05:10.803Z,14.7
2023-03-05T06:06:26.993Z,14.7
2023-03-05T06:07:43.565Z,14.7
2023-03-05T06:08:59.768Z,14.7
2023-03-05T06:10:15.950Z,14.7
2023-03-05T06:11:32.139Z,14.7
2023-03-05T06:12:48.326Z,14.7
2023-03-05T06:14:03.540Z,14.7
2023-03-05T06:15:19.719Z,14.7
2023-03-05T06:16:35.923Z,14.7
2023-03-05T06:17:51.714Z,14.7
2023-03-05T06:19:08.298Z,14.7
2023-03-05T06:20:24.486Z,14.7
2023-03-05T06:21:40.668Z,14.7
2023-03-05T06:22:56.850Z,14.8
2023-03-05T06:24:13.054Z,14.8
2023-03-05T06:25:29.236Z,14.7
2023-03-05T06:26:45.433Z,14.8
2023-03-05T06:28:01.213Z,14.7
2023-03-05T06:29:17.812Z,14.7
2023-03-05T06:30:32.608Z,14.7
2023-03-05T06:31:48.797Z,14.7
2023-03-05T06:33:05.382Z,14.8
2023-03-05T06:34:21.189Z,14.8
2023-03-05T06:35:37.775Z,14.7
2023-03-05T06:36:53.950Z,14.8
2023-03-05T06:38:10.139Z,14.8
2023-03-05T06:39:25.941Z,14.8
2023-03-05T06:40:42.532Z,14.8
2023-03-05T06:41:58.312Z,14.8
2023-03-05T06:43:14.505Z,14.8
2023-03-05T06:44:30.692Z,14.8
2023-03-05T06:45:47.276Z,14.8
2023-03-05T06:47:02.090Z,14.8
2023-03-05T06:48:18.684Z,14.8
2023-03-05T06:49:34.862Z,14.8
2023-03-05T06:50:51.048Z,14.8
2023-03-05T06:52:06.846Z,14.8
2023-03-05T06:53:23.435Z,14.9
2023-03-05T06:54:39.624Z,14.9
2023-03-05T06:55:55.816Z,14.9
2023-03-05T06:57:12.002Z,14.8
2023-03-05T06:58:28.202Z,14.8
2023-03-05T06:59:44.387Z,14.8
2023-03-05T07:01:00.578Z,14.8
2023-03-05T07:02:16.754Z,14.8
2023-03-05T07:03:31.962Z,14.8
2023-03-05T07:04:48.157Z,14.8
2023-03-05T07:06:04.345Z,14.8
2023-03-05T07:07:20.121Z,14.8
2023-03-05T07:08:36.315Z,14.8
2023-03-05T07:09:52.907Z,14.8
2023-03-05T07:11:09.110Z,14.8
2023-03-05T07:12:24.872Z,14.8
2023-03-05T07:13:41.479Z,14.8
2023-03-05T07:14:57.665Z,14.8
2023-03-05T07:16:13.449Z,14.9
2023-03-05T07:17:30.046Z,14.9
2023-03-05T07:18:46.240Z,14.9
2023-03-05T07:20:01.437Z,14.9
2023-03-05T07:21:17.638Z,14.9
2023-03-05T07:22:33.815Z,14.9
2023-03-05T07:23:50.010Z,14.9
2023-03-05T07:25:05.785Z,14.9
2023-03-05T07:26:22.389Z,14.9
2023-03-05T07:27:38.569Z,14.9
2023-03-05T07:28:54.768Z,14.9
2023-03-05T07:30:10.957Z,14.9
2023-03-05T07:31:27.146Z,14.9
2023-03-05T07:32:42.926Z,14.9
2023-03-05T07:33:59.531Z,14.9
2023-03-05T07:35:15.704Z,14.9
2023-03-05T07:36:30.917Z,14.9
2023-03-05T07:37:46.695Z,14.9
2023-03-05T07:39:03.289Z,14.9
2023-03-05T07:40:19.069Z,14.9
2023-03-05T07:41:35.678Z,14.9
2023-03-05T07:42:51.453Z,14.9
2023-03-05T07:44:07.076Z,14.9
2023-03-05T07:45:23.268Z,14.9
2023-03-05T07:46:39.035Z,14.9
2023-03-05T07:47:55.636Z,14.9
2023-03-05T07:49:11.824Z,14.9
2023-03-05T07:50:28.019Z,14.9
2023-03-05T07:51:44.211Z,14.9
2023-03-05T07:53:00.405Z,14.9
2023-03-05T07:54:16.582Z,14.9
2023-03-05T07:55:32.362Z,14.9
2023-03-05T07:56:48.956Z,15
2023-03-05T07:58:05.151Z,15
2023-03-05T07:59:21.348Z,14.9
2023-03-05T08:00:36.133Z,15
2023-03-05T08:01:52.000Z,14.9
2023-03-05T08:03:08.513Z,14.9
2023-03-05T08:04:25.119Z,15
2023-03-05T08:05:41.305Z,15
2023-03-05T08:06:57.505Z,14.9
2023-03-05T08:08:13.677Z,15
2023-03-05T08:09:29.870Z,15
2023-03-05T08:10:45.633Z,15
2023-03-05T08:12:02.243Z,14.9
2023-03-05T08:13:18.450Z,15
2023-03-05T08:14:34.629Z,15
2023-03-05T08:15:50.816Z,15
2023-03-05T08:17:06.027Z,15
2023-03-05T08:18:21.798Z,15
2023-03-05T08:19:38.412Z,15
2023-03-05T08:20:54.595Z,15.1
2023-03-05T08:22:10.780Z,15.1
2023-03-05T08:23:26.983Z,15.1
2023-03-05T08:24:43.157Z,15.1
2023-03-05T08:25:58.922Z,15.1
2023-03-05T08:27:15.109Z,15.1
2023-03-05T08:28:31.736Z,15.1
2023-03-05T08:29:47.926Z,15.1
2023-03-05T08:31:04.112Z,15.1
2023-03-05T08:32:20.288Z,15.1
2023-03-05T08:33:35.498Z,15.1
2023-03-05T08:34:51.698Z,15.1
2023-03-05T08:36:07.891Z,15.1
2023-03-05T08:37:23.653Z,15.1
2023-03-05T08:38:40.268Z,15.1
2023-03-05T08:39:56.450Z,15.2
2023-03-05T08:41:12.204Z,15.2
2023-03-05T08:42:28.818Z,15.2
2023-03-05T08:43:45.025Z,15.2
2023-03-05T08:45:01.210Z,15.2
2023-03-05T08:46:17.404Z,15.2
2023-03-05T08:47:33.581Z,15.3
2023-03-05T08:48:49.344Z,15.3
2023-03-05T08:50:04.542Z,15.3
2023-03-05T08:51:21.164Z,15.3
2023-03-05T08:52:37.366Z,15.2
2023-03-05T08:53:53.557Z,15.2
2023-03-05T08:55:09.742Z,15.2
2023-03-05T08:56:25.501Z,15.2
2023-03-05T08:57:41.000Z,15.2
2023-03-05T08:58:58.299Z,15.2
2023-03-05T09:00:14.057Z,15.2
2023-03-05T09:01:30.690Z,15.2
2023-03-05T09:02:46.876Z,15.2
2023-03-05T09:04:02.628Z,15.2
2023-03-05T09:05:19.240Z,15.2
2023-03-05T09:06:34.450Z,15.2
2023-03-05T09:07:50.637Z,15.2
2023-03-05T09:09:06.397Z,15.3
2023-03-05T09:10:23.020Z,15.3
2023-03-05T09:11:38.770Z,15.3
2023-03-05T09:12:55.403Z,15.3
2023-03-05T09:14:11.586Z,15.3
2023-03-05T09:15:27.334Z,15.3
2023-03-05T09:16:43.975Z,15.3
2023-03-05T09:17:59.716Z,15.3
2023-03-05T09:19:16.340Z,15.3
2023-03-05T09:20:32.529Z,15.3
2023-03-05T09:21:48.727Z,15.2
2023-03-05T09:23:03.489Z,15.2
2023-03-05T09:24:20.114Z,15.3
2023-03-05T09:25:36.305Z,15.3
2023-03-05T09:26:52.498Z,15.3
2023-03-05T09:28:08.254Z,15.3
2023-03-05T09:29:24.872Z,15.3
2023-03-05T09:30:41.069Z,15.3
2023-03-05T09:31:57.251Z,15.3
2023-03-05T09:33:13.442Z,15.3
2023-03-05T09:34:29.190Z,15.3
2023-03-05T09:35:45.388Z,15.4
2023-03-05T09:37:02.012Z,15.4
2023-03-05T09:38:18.200Z,15.3
2023-03-05T09:39:33.413Z,15.3
2023-03-05T09:40:49.145Z,15.3
2023-03-05T09:42:05.788Z,15.3
2023-03-05T09:43:21.985Z,15.3
2023-03-05T09:44:38.170Z,15.3
2023-03-05T09:45:54.359Z,15.3
2023-03-05T09:47:10.547Z,15.4
2023-03-05T09:48:26.724Z,15.4
2023-03-05T09:49:42.919Z,15.4
2023-03-05T09:50:59.107Z,15.3
2023-03-05T09:52:15.287Z,15.3
2023-03-05T09:53:31.047Z,15.3
2023-03-05T09:54:47.668Z,15.3
2023-03-05T09:56:02.887Z,15.3
2023-03-05T09:57:18.624Z,15.3
2023-03-05T09:58:35.260Z,15.4
2023-03-05T09:59:51.442Z,15.4
2023-03-05T10:01:07.641Z,15.4
2023-03-05T10:02:23.836Z,15.4
2023-03-05T10:03:39.564Z,15.5
2023-03-05T10:04:55.766Z,15.5
2023-03-05T10:06:11.940Z,15.5
2023-03-05T10:07:28.578Z,15.5
2023-03-05T10:08:44.776Z,15.5
2023-03-05T10:10:00.958Z,15.4
2023-03-05T10:11:17.145Z,15.4
2023-03-05T10:12:31.916Z,15.4
2023-03-05T10:13:48.093Z,15.4
2023-03-05T10:15:04.276Z,15.4
2023-03-05T10:16:20.931Z,15.4
2023-03-05T10:17:37.108Z,15.4
2023-03-05T10:18:53.290Z,15.4
2023-03-05T10:20:09.486Z,15.4
2023-03-05T10:21:25.683Z,15.4
2023-03-05T10:22:41.860Z,15.4
2023-03-05T10:23:57.603Z,15.3
2023-03-05T10:25:14.245Z,15.3
2023-03-05T10:26:30.432Z,15.3
2023-03-05T10:27:46.173Z,15.3
2023-03-05T10:29:01.382Z,15.3
2023-03-05T10:30:18.012Z,15.3
2023-03-05T10:31:33.751Z,15.3
2023-03-05T10:32:50.402Z,15.3
2023-03-05T10:34:06.589Z,15.3
2023-03-05T10:35:22.327Z,15.3
2023-03-05T10:36:38.970Z,15.3
2023-03-05T10:37:54.701Z,15.3
2023-03-05T10:39:11.346Z,15.3
2023-03-05T10:40:27.089Z,15.3
2023-03-05T10:41:43.724Z,15.2
2023-03-05T10:42:59.461Z,15.2
2023-03-05T10:44:16.092Z,15.2
2023-03-05T10:45:31.304Z,15.2
2023-03-05T10:46:47.503Z,15.2
2023-03-05T10:48:03.679Z,15.2
2023-03-05T10:49:19.862Z,15.2
2023-03-05T10:50:36.053Z,15.2
2023-03-05T10:51:52.248Z,15.2
2023-03-05T10:53:08.441Z,15.2
2023-03-05T10:54:24.175Z,15.2
2023-03-05T10:55:40.352Z,15.3
2023-03-05T10:56:57.005Z,15.3
2023-03-05T10:58:13.191Z,15.3
2023-03-05T10:59:29.376Z,15.3
2023-03-05T11:00:45.121Z,15.3
2023-03-05T11:02:00.788Z,15.3
2023-03-05T11:03:16.965Z,15.3
2023-03-05T11:04:33.156Z,15.3
2023-03-05T11:05:48.897Z,15.3
2023-03-05T11:07:05.528Z,15.3
2023-03-05T11:08:21.270Z,15.3
2023-03-05T11:09:37.449Z,15.3
2023-03-05T11:10:54.097Z,15.3
2023-03-05T11:12:10.294Z,15.3
2023-03-05T11:13:26.483Z,15.3
2023-03-05T11:14:42.662Z,15.2
2023-03-05T11:15:58.402Z,15.2
2023-03-05T11:17:15.050Z,15.2
2023-03-05T11:18:30.265Z,15.2
2023-03-05T11:19:46.445Z,15.2
2023-03-05T11:21:02.174Z,15.2
2023-03-05T11:22:18.371Z,15.2
2023-03-05T11:23:34.542Z,15.2
2023-03-05T11:24:51.195Z,15.2
2023-03-05T11:26:07.385Z,15.2
2023-03-05T11:27:23.579Z,15.3
2023-03-05T11:28:39.311Z,15.3
2023-03-05T11:29:55.504Z,15.4
2023-03-05T11:31:12.141Z,15.4
2023-03-05T11:32:28.345Z,15.4
2023-03-05T11:33:44.520Z,15.4
2023-03-05T11:34:59.723Z,15.4
2023-03-05T11:36:15.462Z,15.4
2023-03-05T11:37:31.654Z,15.4
2023-03-05T11:38:47.839Z,15.3
2023-03-05T11:40:04.489Z,15.3
2023-03-05T11:41:20.208Z,15.3
2023-03-05T11:42:36.868Z,15.3
2023-03-05T11:43:53.059Z,15.3
2023-03-05T11:45:09.250Z,15.3
2023-03-05T11:46:25.437Z,15.3
2023-03-05T11:47:41.164Z,15.3
2023-03-05T11:48:57.336Z,15.3
2023-03-05T11:50:13.996Z,15.3
2023-03-05T11:51:28.742Z,15.4
2023-03-05T11:52:45.404Z,15.5
2023-03-05T11:54:01.586Z,15.5
2023-03-05T11:55:17.312Z,15.6
2023-03-05T11:56:33.963Z,15.6
2023-03-05T11:57:50.148Z,15.6
2023-03-05T11:59:05.363Z,15.6
2023-03-05T12:00:21.551Z,15.6
2023-03-05T12:01:37.739Z,15.6
2023-03-05T12:02:53.927Z,15.6
2023-03-05T12:04:10.120Z,15.5
2023-03-05T12:05:26.314Z,15.5
2023-03-05T12:06:42.501Z,15.5
2023-03-05T12:07:58.690Z,15.4
2023-03-05T12:09:14.874Z,15.4
2023-03-05T12:10:31.073Z,15.4
2023-03-05T12:11:46.781Z,15.4
2023-03-05T12:13:02.982Z,15.4
2023-03-05T12:14:19.168Z,15.4
2023-03-05T12:15:34.833Z,15.4
2023-03-05T12:16:51.024Z,15.4
2023-03-05T12:18:07.219Z,15.4
2023-03-05T12:19:22.936Z,15.4
2023-03-05T12:20:39.604Z,15.4
2023-03-05T12:21:55.319Z,15.5
2023-03-05T12:23:11.969Z,15.5
2023-03-05T12:24:28.173Z,15.6
2023-03-05T12:25:44.349Z,15.7
2023-03-05T12:27:00.545Z,15.8
2023-03-05T12:28:16.264Z,15.8
2023-03-05T12:29:32.460Z,15.9
2023-03-05T12:30:49.104Z,15.9
2023-03-05T12:32:04.314Z,16
2023-03-05T12:33:20.512Z,16.2
2023-03-05T12:34:36.688Z,16.1
2023-03-05T12:35:52.415Z,16.1
2023-03-05T12:37:09.071Z,16.1
2023-03-05T12:38:25.279Z,16.1
2023-03-05T12:39:41.452Z,16.1
2023-03-05T12:40:57.644Z,16.1
2023-03-05T12:42:13.355Z,16.1
2023-03-05T12:43:30.014Z,16.3
2023-03-05T12:44:45.724Z,16.6
2023-03-05T12:46:02.404Z,16.5
2023-03-05T12:47:18.583Z,16.5
2023-03-05T12:48:33.788Z,16.4
2023-03-05T12:49:49.978Z,16.3
2023-03-05T12:51:06.179Z,16.2
2023-03-05T12:52:21.884Z,16.2
2023-03-05T12:53:38.064Z,16.1
2023-03-05T12:54:54.751Z,16
2023-03-05T12:56:10.925Z,16
2023-03-05T12:57:26.636Z,16
2023-03-05T12:58:43.304Z,15.9
2023-03-05T12:59:59.016Z,15.9
2023-03-05T13:01:15.682Z,15.9
2023-03-05T13:02:31.874Z,15.8
2023-03-05T13:03:47.581Z,15.8
2023-03-05T13:05:03.280Z,15.8
2023-03-05T13:06:19.460Z,15.8
2023-03-05T13:07:35.175Z,15.8
2023-03-05T13:08:51.836Z,15.9
2023-03-05T13:10:08.038Z,15.9
2023-03-05T13:11:23.740Z,15.9
2023-03-05T13:12:39.915Z,15.9
2023-03-05T13:13:56.600Z,16
2023-03-05T13:15:12.783Z,16
2023-03-05T13:16:28.482Z,16.1
2023-03-05T13:17:45.172Z,16.1
2023-03-05T13:19:00.867Z,16.2
2023-03-05T13:20:17.055Z,16.2
2023-03-05T13:21:32.752Z,16.3
2023-03-05T13:22:48.934Z,16.4
2023-03-05T13:24:05.118Z,16.4
2023-03-05T13:25:21.318Z,16.4
2023-03-05T13:26:37.019Z,16.4
2023-03-05T13:27:53.208Z,16.4
2023-03-05T13:29:09.391Z,16.3
2023-03-05T13:30:25.581Z,16.3
2023-03-05T13:31:42.248Z,16.3
2023-03-05T13:32:58.436Z,16.3
2023-03-05T13:34:14.636Z,16.3
2023-03-05T13:35:30.818Z,16.3
2023-03-05T13:36:46.504Z,16.3
2023-03-05T13:38:01.712Z,16.3
2023-03-05T13:39:18.400Z,16.3
2023-03-05T13:40:34.580Z,16.3
2023-03-05T13:41:50.777Z,16.3
2023-03-05T13:43:06.956Z,16.3
2023-03-05T13:44:23.149Z,16.3
2023-03-05T13:45:38.844Z,16.3
2023-03-05T13:46:55.529Z,16.3
2023-03-05T13:48:11.709Z,16.3
2023-03-05T13:49:27.404Z,16.3
2023-03-05T13:50:44.080Z,16.3
2023-03-05T13:51:59.776Z,16.2
2023-03-05T13:53:16.448Z,16.2
2023-03-05T13:54:31.168Z,16.2
2023-03-05T13:55:47.845Z,16.2
2023-03-05T13:57:04.031Z,16.2
2023-03-05T13:58:19.731Z,16.2
2023-03-05T13:59:36.404Z,16.2
2023-03-05T14:00:52.589Z,16.2
2023-03-05T14:02:08.787Z,16.2
2023-03-05T14:03:24.469Z,16.1
2023-03-05T14:04:41.168Z,16.1
2023-03-05T14:05:56.859Z,16.1
2023-03-05T14:07:13.045Z,16.1
2023-03-05T14:08:29.231Z,16
2023-03-05T14:09:45.900Z,16
2023-03-05T14:11:01.118Z,16
2023-03-05T14:12:17.310Z,15.9
2023-03-05T14:13:33.499Z,15.9
2023-03-05T14:14:49.682Z,15.9
2023-03-05T14:16:05.364Z,15.9
2023-03-05T14:17:21.542Z,15.8
2023-03-05T14:18:38.246Z,15.8
2023-03-05T14:19:54.422Z,15.8
2023-03-05T14:21:10.615Z,15.8
2023-03-05T14:22:26.800Z,15.8
2023-03-05T14:23:42.985Z,15.8
2023-03-05T14:24:59.177Z,15.8
2023-03-05T14:26:15.358Z,15.7
2023-03-05T14:27:30.565Z,15.7
2023-03-05T14:28:46.750Z,15.7
2023-03-05T14:30:02.933Z,15.7
2023-03-05T14:31:19.121Z,15.7
2023-03-05T14:32:34.815Z,15.7
2023-03-05T14:33:51.511Z,15.7
2023-03-05T14:35:07.692Z,15.7
2023-03-05T14:36:23.877Z,15.7
2023-03-05T14:37:40.075Z,15.7
2023-03-05T14:38:55.756Z,15.7
2023-03-05T14:40:11.936Z,15.8
2023-03-05T14:41:28.631Z,15.8
2023-03-05T14:42:44.815Z,15.8
2023-03-05T14:43:59.514Z,15.8
2023-03-05T14:45:16.208Z,15.8
2023-03-05T14:46:31.890Z,15.8
2023-03-05T14:47:48.584Z,15.8
2023-03-05T14:49:04.776Z,15.8
2023-03-05T14:50:20.969Z,15.8
2023-03-05T14:51:37.142Z,15.7
2023-03-05T14:52:53.328Z,15.7
2023-03-05T14:54:09.015Z,15.7
2023-03-05T14:55:25.194Z,15.7
2023-03-05T14:56:41.889Z,15.7
2023-03-05T14:57:58.084Z,15.7
2023-03-05T14:59:14.270Z,15.6
2023-03-05T15:00:29.486Z,15.6
2023-03-05T15:01:45.149Z,15.6
2023-03-05T15:03:01.852Z,15.6
2023-03-05T15:04:18.029Z,15.6
2023-03-05T15:05:33.718Z,15.6
2023-03-05T15:06:49.908Z,15.6
2023-03-05T15:08:06.595Z,15.6
2023-03-05T15:09:22.281Z,15.6
2023-03-05T15:10:38.467Z,15.6
2023-03-05T15:11:54.655Z,15.6
2023-03-05T15:13:11.343Z,15.6
2023-03-05T15:14:27.532Z,15.5
2023-03-05T15:15:43.721Z,15.5
2023-03-05T15:16:58.412Z,15.5
2023-03-05T15:18:15.113Z,15.5
2023-03-05T15:19:31.298Z,15.5
2023-03-05T15:20:47.496Z,15.5
2023-03-05T15:22:03.689Z,15.5
2023-03-05T15:23:19.360Z,15.5
2023-03-05T15:24:36.063Z,15.5
2023-03-05T15:25:52.250Z,15.5
2023-03-05T15:27:08.436Z,15.5
2023-03-05T15:28:24.626Z,15.5
2023-03-05T15:29:40.813Z,15.4
2023-03-05T15:32:13.184Z,15.4
2023-03-05T15:33:28.120Z,15.4
2023-03-05T15:34:44.565Z,15.4
2023-03-05T15:36:00.766Z,15.4
2023-03-05T15:37:16.938Z,15.4
2023-03-05T15:38:33.132Z,15.3
2023-03-05T15:39:49.067Z,15.3
2023-03-05T15:41:05.512Z,15.3
2023-03-05T15:42:21.693Z,15.3
2023-03-05T15:43:37.885Z,15.3
2023-03-05T15:44:53.824Z,15.3
2023-03-05T15:46:10.003Z,15.3
2023-03-05T15:47:26.196Z,15.3
2023-03-05T15:48:42.629Z,15.3
2023-03-05T15:49:57.845Z,15.3
2023-03-05T15:51:14.027Z,15.3
2023-03-05T15:52:30.208Z,15.3
2023-03-05T15:53:46.407Z,15.3
2023-03-05T15:55:02.325Z,15.3
2023-03-05T15:56:18.782Z,15.3
2023-03-05T15:57:34.965Z,15.3
2023-03-05T15:58:51.156Z,15.3
2023-03-05T16:00:07.346Z,15.3
2023-03-05T16:01:23.527Z,15.2
2023-03-05T16:02:39.451Z,15.2
2023-03-05T16:03:55.899Z,15.2
2023-03-05T16:05:12.081Z,15.2
2023-03-05T16:06:27.292Z,15.2
2023-03-05T16:07:43.214Z,15.2
2023-03-05T16:08:59.671Z,15.2
2023-03-05T16:10:15.584Z,15.2
2023-03-05T16:11:32.034Z,15.2
2023-03-05T16:12:48.220Z,15.2
2023-03-05T16:14:03.166Z,15.2
2023-03-05T16:15:19.356Z,15.2
2023-03-05T16:16:35.804Z,15.2
2023-03-05T16:17:51.745Z,15.2
2023-03-05T16:19:08.185Z,15.2
2023-03-05T16:20:24.377Z,15.2
2023-03-05T16:21:40.569Z,15.2
2023-03-05T16:22:56.763Z,15.2
2023-03-05T16:24:12.678Z,15.2
2023-03-05T16:25:28.852Z,15.2
2023-03-05T16:26:45.052Z,15.2
2023-03-05T16:28:01.509Z,15.2
2023-03-05T16:29:17.691Z,15.2
2023-03-05T16:30:32.882Z,15.1
2023-03-05T16:31:49.073Z,15.1
2023-03-05T16:33:05.277Z,15.1
2023-03-05T16:34:21.445Z,15.1
2023-03-05T16:35:37.373Z,15.1
2023-03-05T16:36:53.824Z,15.1
2023-03-05T16:38:10.027Z,15.1
2023-03-05T16:39:25.929Z,15.1
2023-03-05T16:40:42.388Z,15.1
2023-03-05T16:41:58.572Z,15.1
2023-03-05T16:43:14.499Z,15.1
2023-03-05T16:44:30.959Z,15
2023-03-05T16:45:47.140Z,15
2023-03-05T16:47:02.075Z,15
2023-03-05T16:48:18.264Z,15
2023-03-05T16:49:34.729Z,15
2023-03-05T16:50:50.904Z,15
2023-03-05T16:52:06.827Z,15
2023-03-05T16:53:23.277Z,15
2023-03-05T16:54:39.469Z,15
2023-03-05T16:55:55.662Z,15
2023-03-05T16:57:11.842Z,15
2023-03-05T16:58:27.754Z,15
2023-03-05T16:59:44.228Z,15
2023-03-05T17:01:00.415Z,15
2023-03-05T17:02:16.603Z,15
2023-03-05T17:03:31.000Z,15
2023-03-05T17:04:47.708Z,15
2023-03-05T17:06:04.167Z,15
2023-03-05T17:07:20.081Z,15